Hlavní strana
METAR-TAF:

METAR-TAF

Letiště :

Ancona, Itálie

zeměpisná šířka: 43-37N, zeměpisná délka: 013-22E, výška: 12 m

Aktuální stav počasí

Zpráva byla vytvořena před 3 hodinami a 59 minutami, v 21:50 UTC
Jižní vítr 4 kt
Teplota 23°C
Vlhkost vzduchu 83%
Tlak 1016 hPa
Viditelnost 10 km a více
Žádná oblačnost pod 1500 m, nevyskytují se cumulonimby.

METAR: LIPY 182150Z 17004KT CAVOK 23/20 Q1016

Čas: 03:49 (01:49 UTC)

Předpověď počasí

Zpráva byla vytvořena před 8 hodinami a 49 minutami, v 17:00 UTC
Předpověď platná od 18 v 18 UTC do 19 v 18 UTC
vítr z různých směrů 4 kt
Viditelnost 10 km a více
Žádná oblačnost pod 1500 m, nevyskytují se cumulonimby.
Změna
od 19 v 08 UTC do 19 v 10 UTC
Severní vítr 10 kt
Změna
od 19 v 16 UTC do 19 v 18 UTC
vítr z různých směrů 4 kt

TAF: LIPY 181700Z 1818/1918 VRB04KT CAVOK BECMG 1908/1910 35010KT BECMG 1916/1918 VRB04KT

Stav a předpovědi počasí z více než 4 000 letišť (zprávy METAR a TAF).

Červené a žluté tečky na mapě představují dostupné meteorologické stanice.

Když kurzor umístíte na tečku, zobrazí se název stanice.

Pak kliknutím zobrazíte stav a předpověď počasí.

Chcete-li změnit mapu, kliknutím na zelené tlačítko se znaménkem +mapu přiblížíte, kliknutím na zelené tlačítko se znaménkem – mapu oddálíte a kliknutím na zelené šipky přejdete na sousední mapy.


METAR-TAF: